createdAt,value
2022-10-06T00:01:04.219Z,93.00
2022-10-06T00:03:51.733Z,92.80
2022-10-06T00:06:40.485Z,92.90
2022-10-06T00:09:27.956Z,92.80
2022-10-06T00:12:15.324Z,92.80
2022-10-06T00:15:02.422Z,92.70
2022-10-06T00:17:50.472Z,92.70
2022-10-06T00:20:37.860Z,92.70
2022-10-06T00:23:26.903Z,92.80
2022-10-06T00:26:16.824Z,92.50
2022-10-06T00:29:04.933Z,92.80
2022-10-06T00:31:52.521Z,92.90
2022-10-06T00:34:39.800Z,92.90
2022-10-06T00:37:27.214Z,92.90
2022-10-06T00:40:15.977Z,92.90
2022-10-06T00:43:06.090Z,92.70
2022-10-06T00:45:54.186Z,92.90
2022-10-06T00:48:42.154Z,93.00
2022-10-06T00:51:31.475Z,93.10
2022-10-06T00:54:20.375Z,92.90
2022-10-06T00:57:09.483Z,93.00
2022-10-06T00:59:57.080Z,92.70
2022-10-06T01:02:50.269Z,92.70
2022-10-06T01:05:43.411Z,92.90
2022-10-06T01:08:32.555Z,92.90
2022-10-06T01:11:19.986Z,93.10
2022-10-06T01:14:09.024Z,93.20
2022-10-06T01:17:01.122Z,93.00
2022-10-06T01:19:53.546Z,93.00
2022-10-06T01:22:45.564Z,93.00
2022-10-06T01:25:34.646Z,92.90
2022-10-06T01:28:22.632Z,93.30
2022-10-06T01:31:11.292Z,93.40
2022-10-06T01:33:58.775Z,93.40
2022-10-06T01:36:46.804Z,93.60
2022-10-06T01:39:36.286Z,93.60
2022-10-06T01:42:24.409Z,93.50
2022-10-06T01:45:12.337Z,93.60
2022-10-06T01:47:59.689Z,93.70
2022-10-06T01:50:48.184Z,93.70
2022-10-06T01:53:35.986Z,93.80
2022-10-06T01:56:24.959Z,93.90
2022-10-06T01:59:12.422Z,94.10
2022-10-06T02:02:00.006Z,93.90
2022-10-06T02:04:47.718Z,93.90
2022-10-06T02:07:36.840Z,94.00
2022-10-06T02:10:24.310Z,93.80
2022-10-06T02:13:14.271Z,94.00
2022-10-06T02:16:01.961Z,93.80
2022-10-06T02:18:49.357Z,93.90
2022-10-06T02:21:36.596Z,94.00
2022-10-06T02:24:23.947Z,94.00
2022-10-06T02:27:11.424Z,94.00
2022-10-06T02:30:00.140Z,94.00
2022-10-06T02:32:48.294Z,93.80
2022-10-06T02:35:35.929Z,94.00
2022-10-06T02:38:23.912Z,94.00
2022-10-06T02:41:11.982Z,94.00
2022-10-06T02:44:00.085Z,94.00
2022-10-06T02:46:49.841Z,94.00
2022-10-06T02:49:38.303Z,93.70
2022-10-06T02:52:25.794Z,94.00
2022-10-06T02:55:13.781Z,93.90
2022-10-06T02:58:01.417Z,93.90
2022-10-06T03:00:48.948Z,94.10
2022-10-06T03:03:39.257Z,94.10
2022-10-06T03:06:28.644Z,93.90
2022-10-06T03:09:24.345Z,93.90
2022-10-06T03:12:13.495Z,94.00
2022-10-06T03:15:04.709Z,94.10
2022-10-06T03:17:52.683Z,93.90
2022-10-06T03:20:41.464Z,93.80
2022-10-06T03:23:29.279Z,93.60
2022-10-06T03:26:18.705Z,93.80
2022-10-06T03:29:11.137Z,93.80
2022-10-06T03:32:03.145Z,93.80
2022-10-06T03:34:50.852Z,93.80
2022-10-06T03:37:39.965Z,93.70
2022-10-06T03:40:27.867Z,93.60
2022-10-06T03:43:15.616Z,93.80
2022-10-06T03:46:04.369Z,93.70
2022-10-06T03:48:54.055Z,93.50
2022-10-06T03:51:43.048Z,93.70
2022-10-06T03:54:40.640Z,93.70
2022-10-06T03:57:27.875Z,93.60
2022-10-06T04:00:16.629Z,93.70
2022-10-06T04:03:05.677Z,93.50
2022-10-06T04:05:58.509Z,93.70
2022-10-06T04:08:49.388Z,93.50
2022-10-06T04:11:40.811Z,93.70
2022-10-06T04:14:28.934Z,93.60
2022-10-06T04:17:17.213Z,93.60
2022-10-06T04:20:04.901Z,93.50
2022-10-06T04:22:52.770Z,93.60
2022-10-06T04:25:40.091Z,93.50
2022-10-06T04:28:29.033Z,93.40
2022-10-06T04:31:20.184Z,93.10
2022-10-06T04:34:09.033Z,93.40
2022-10-06T04:36:56.712Z,93.60
2022-10-06T04:39:44.678Z,93.70
2022-10-06T04:42:35.069Z,93.50
2022-10-06T04:45:26.512Z,93.70
2022-10-06T04:48:14.989Z,93.60
2022-10-06T04:51:05.079Z,93.70
2022-10-06T04:53:53.308Z,93.70
2022-10-06T04:56:41.788Z,93.60
2022-10-06T04:59:43.764Z,93.80
2022-10-06T05:02:33.829Z,93.60
2022-10-06T05:05:21.267Z,93.40
2022-10-06T05:08:10.797Z,93.60
2022-10-06T05:11:01.697Z,93.80
2022-10-06T05:13:51.805Z,93.70
2022-10-06T05:16:39.281Z,93.40
2022-10-06T05:19:29.440Z,93.60
2022-10-06T05:22:17.327Z,93.00
2022-10-06T05:25:05.781Z,93.40
2022-10-06T05:27:53.384Z,93.40
2022-10-06T05:30:41.120Z,93.30
2022-10-06T05:33:31.169Z,93.40
2022-10-06T05:36:22.863Z,93.40
2022-10-06T05:39:12.151Z,93.30
2022-10-06T05:42:09.730Z,93.50
2022-10-06T05:44:58.290Z,93.50
2022-10-06T05:47:45.676Z,93.60
2022-10-06T05:50:33.108Z,93.60
2022-10-06T05:53:21.741Z,93.60
2022-10-06T05:56:11.813Z,93.50
2022-10-06T05:59:02.037Z,93.50
2022-10-06T06:01:50.413Z,93.70
2022-10-06T06:04:42.584Z,93.70
2022-10-06T06:07:12.376Z,93.70
2022-10-06T06:09:45.659Z,93.50
2022-10-06T06:12:16.583Z,93.50
2022-10-06T06:15:08.947Z,93.50
2022-10-06T06:17:42.905Z,93.60
2022-10-06T06:20:11.948Z,93.40
2022-10-06T06:22:41.235Z,93.30
2022-10-06T06:25:13.001Z,93.40
2022-10-06T06:27:43.820Z,93.40
2022-10-06T06:30:13.716Z,93.70
2022-10-06T06:32:43.286Z,93.70
2022-10-06T06:35:12.777Z,93.60
2022-10-06T06:37:41.884Z,93.70
2022-10-06T06:40:12.378Z,93.70
2022-10-06T06:42:44.386Z,93.70
2022-10-06T06:45:36.041Z,93.90
2022-10-06T06:48:23.675Z,93.90
2022-10-06T06:50:59.530Z,94.00
2022-10-06T06:53:32.324Z,93.80
2022-10-06T06:56:05.205Z,93.90
2022-10-06T06:58:36.205Z,93.90
2022-10-06T07:01:13.774Z,94.00
2022-10-06T07:03:57.181Z,94.00
2022-10-06T07:06:29.434Z,94.10
2022-10-06T07:09:01.279Z,94.10
2022-10-06T07:11:35.288Z,93.90
2022-10-06T07:14:09.392Z,93.70
2022-10-06T07:17:07.530Z,93.50
2022-10-06T07:19:55.538Z,94.10
2022-10-06T07:22:45.995Z,94.00
2022-10-06T07:25:26.042Z,93.50
2022-10-06T07:28:04.359Z,93.40
2022-10-06T07:30:40.972Z,93.00
2022-10-06T07:33:15.837Z,93.30
2022-10-06T07:35:47.118Z,93.00
2022-10-06T07:38:18.729Z,93.00
2022-10-06T07:41:14.936Z,92.90
2022-10-06T07:43:47.628Z,92.20
2022-10-06T07:46:19.393Z,92.60
2022-10-06T07:49:12.144Z,93.00
2022-10-06T07:51:42.997Z,92.80
2022-10-06T07:54:12.274Z,93.00
2022-10-06T07:56:48.820Z,93.00
2022-10-06T07:59:22.219Z,93.10
2022-10-06T08:01:52.619Z,93.00
2022-10-06T08:04:21.705Z,92.90
2022-10-06T08:06:50.688Z,93.10
2022-10-06T08:09:20.053Z,92.90
2022-10-06T08:11:49.003Z,92.50
2022-10-06T08:14:19.407Z,92.20
2022-10-06T08:16:48.393Z,91.70
2022-10-06T08:19:19.648Z,92.20
2022-10-06T08:21:48.669Z,92.00
2022-10-06T08:24:19.718Z,92.20
2022-10-06T08:26:48.674Z,92.10
2022-10-06T08:29:19.074Z,92.40
2022-10-06T08:31:48.127Z,91.40
2022-10-06T08:34:17.231Z,91.50
2022-10-06T08:37:02.141Z,91.30
2022-10-06T08:39:35.264Z,91.50
2022-10-06T08:42:04.570Z,91.20
2022-10-06T08:44:40.644Z,90.90
2022-10-06T08:47:18.874Z,90.00
2022-10-06T08:49:50.318Z,89.30
2022-10-06T08:52:37.431Z,90.20
2022-10-06T08:55:24.567Z,88.70
2022-10-06T08:58:11.918Z,88.60
2022-10-06T09:00:42.382Z,88.10
2022-10-06T09:03:23.109Z,89.20
2022-10-06T09:05:54.309Z,87.70
2022-10-06T09:08:42.277Z,89.70
2022-10-06T09:11:37.192Z,87.70
2022-10-06T09:14:14.145Z,87.20
2022-10-06T09:16:53.720Z,87.80
2022-10-06T09:19:32.865Z,86.20
2022-10-06T09:22:05.653Z,87.00
2022-10-06T09:24:41.449Z,88.30
2022-10-06T09:27:20.299Z,87.30
2022-10-06T09:29:50.041Z,86.40
2022-10-06T09:32:22.649Z,87.70
2022-10-06T09:34:56.275Z,85.80
2022-10-06T09:37:25.580Z,84.70
2022-10-06T09:39:55.881Z,84.80
2022-10-06T09:42:28.352Z,84.50
2022-10-06T09:45:03.968Z,83.40
2022-10-06T09:47:41.140Z,81.70
2022-10-06T09:50:23.617Z,81.10
2022-10-06T09:53:18.482Z,80.60
2022-10-06T09:55:54.865Z,80.00
2022-10-06T09:58:34.735Z,79.80
2022-10-06T10:01:07.177Z,80.10
2022-10-06T10:04:19.870Z,80.60
2022-10-06T10:06:42.414Z,77.60
2022-10-06T10:09:28.863Z,80.60
2022-10-06T10:12:27.634Z,79.20
2022-10-06T10:15:01.897Z,79.20
2022-10-06T10:17:40.245Z,79.20
2022-10-06T10:20:29.032Z,77.70
2022-10-06T10:23:01.328Z,77.60
2022-10-06T10:26:17.695Z,79.00
2022-10-06T10:29:08.033Z,76.70
2022-10-06T10:31:51.235Z,77.20
2022-10-06T10:34:42.076Z,78.40
2022-10-06T10:37:16.174Z,76.10
2022-10-06T10:39:52.281Z,77.20
2022-10-06T10:42:29.205Z,78.20
2022-10-06T10:45:02.823Z,76.80
2022-10-06T10:47:37.890Z,77.80
2022-10-06T10:50:12.611Z,77.30
2022-10-06T10:52:45.698Z,75.40
2022-10-06T10:55:29.025Z,74.40
2022-10-06T10:58:05.917Z,73.20
2022-10-06T11:00:40.320Z,74.70
2022-10-06T11:03:11.720Z,75.90
2022-10-06T11:06:08.841Z,75.20
2022-10-06T11:08:46.087Z,72.90
2022-10-06T11:11:23.543Z,73.60
2022-10-06T11:13:54.829Z,73.10
2022-10-06T11:16:37.302Z,73.30
2022-10-06T11:19:22.965Z,72.90
2022-10-06T11:22:00.133Z,71.40
2022-10-06T11:24:37.690Z,71.30
2022-10-06T11:27:23.399Z,71.20
2022-10-06T11:30:04.974Z,70.40
2022-10-06T11:32:48.649Z,70.30
2022-10-06T11:35:22.977Z,69.90
2022-10-06T11:38:00.309Z,70.30
2022-10-06T11:40:42.609Z,71.60
2022-10-06T11:43:21.850Z,70.50
2022-10-06T11:46:01.029Z,70.30
2022-10-06T11:48:32.131Z,70.00
2022-10-06T11:51:31.898Z,71.30
2022-10-06T11:54:01.099Z,69.70
2022-10-06T11:56:41.060Z,72.30
2022-10-06T11:59:26.726Z,71.20
2022-10-06T12:02:04.997Z,70.50
2022-10-06T12:04:34.144Z,68.90
2022-10-06T12:07:05.324Z,71.20
2022-10-06T12:09:53.184Z,70.80
2022-10-06T12:13:07.204Z,69.20
2022-10-06T12:19:19.358Z,69.90
2022-10-06T12:22:01.523Z,71.50
2022-10-06T12:24:42.875Z,69.20
2022-10-06T12:27:36.597Z,69.40
2022-10-06T12:30:22.549Z,69.70
2022-10-06T12:32:54.941Z,70.10
2022-10-06T12:35:32.034Z,70.10
2022-10-06T12:38:04.861Z,69.60
2022-10-06T12:40:49.280Z,70.50
2022-10-06T12:43:56.963Z,67.00
2022-10-06T12:46:38.203Z,67.90
2022-10-06T12:49:42.669Z,68.40
2022-10-06T12:52:32.522Z,69.20
2022-10-06T12:55:16.300Z,68.00
2022-10-06T12:57:50.811Z,68.70
2022-10-06T13:00:34.983Z,69.10
2022-10-06T13:03:08.879Z,68.00
2022-10-06T13:05:38.591Z,69.90
2022-10-06T13:08:22.619Z,70.10
2022-10-06T13:10:51.668Z,69.60
2022-10-06T13:13:24.741Z,70.70
2022-10-06T13:15:55.964Z,70.80
2022-10-06T13:18:26.434Z,70.80
2022-10-06T13:20:57.022Z,69.80
2022-10-06T13:23:29.238Z,69.20
2022-10-06T13:26:00.194Z,68.60
2022-10-06T13:28:48.551Z,69.40
2022-10-06T13:31:22.521Z,67.80
2022-10-06T13:33:57.569Z,69.60
2022-10-06T13:36:27.207Z,69.50
2022-10-06T13:38:56.431Z,70.30
2022-10-06T13:41:31.714Z,70.30
2022-10-06T13:44:04.095Z,70.10
2022-10-06T13:46:41.012Z,70.30
2022-10-06T13:49:21.238Z,68.60
2022-10-06T13:51:53.770Z,69.50
2022-10-06T13:54:29.470Z,68.30
2022-10-06T13:56:59.280Z,68.40
2022-10-06T13:59:36.678Z,68.70
2022-10-06T14:02:26.705Z,68.60
2022-10-06T14:05:29.328Z,68.20
2022-10-06T14:08:02.015Z,68.40
2022-10-06T14:10:45.998Z,69.30
2022-10-06T14:13:19.765Z,69.30
2022-10-06T14:15:51.812Z,69.00
2022-10-06T14:18:24.404Z,70.50
2022-10-06T14:20:56.504Z,70.80
2022-10-06T14:23:49.891Z,71.20
2022-10-06T14:26:21.379Z,70.90
2022-10-06T14:28:52.977Z,71.40
2022-10-06T14:31:23.642Z,71.40
2022-10-06T14:33:54.703Z,71.90
2022-10-06T14:36:28.210Z,71.10
2022-10-06T14:38:59.460Z,70.70
2022-10-06T14:41:31.017Z,70.60
2022-10-06T14:44:02.956Z,70.30
2022-10-06T14:46:32.036Z,70.60
2022-10-06T14:49:03.241Z,70.40
2022-10-06T14:51:36.576Z,70.30
2022-10-06T14:54:07.514Z,71.00
2022-10-06T14:56:39.323Z,71.60
2022-10-06T14:59:11.986Z,70.90
2022-10-06T15:01:41.588Z,71.20
2022-10-06T15:04:14.233Z,71.30
2022-10-06T15:07:02.379Z,71.50
2022-10-06T15:09:32.072Z,72.00
2022-10-06T15:12:01.649Z,72.10
2022-10-06T15:14:30.866Z,71.90
2022-10-06T15:17:00.396Z,72.90
2022-10-06T15:19:29.629Z,72.70
2022-10-06T15:22:00.567Z,71.90
2022-10-06T15:24:29.819Z,71.10
2022-10-06T15:27:17.657Z,71.30
2022-10-06T15:29:48.292Z,71.10
2022-10-06T15:32:17.276Z,71.20
2022-10-06T15:34:46.345Z,71.30
2022-10-06T15:37:19.938Z,71.80
2022-10-06T15:39:48.958Z,72.60
2022-10-06T15:42:21.629Z,72.40
2022-10-06T15:44:50.897Z,72.80
2022-10-06T15:47:19.880Z,73.00
2022-10-06T15:49:49.367Z,72.50
2022-10-06T15:52:19.721Z,73.00
2022-10-06T15:54:49.905Z,73.30
2022-10-06T15:57:21.228Z,73.50
2022-10-06T15:59:51.299Z,73.10
2022-10-06T16:02:22.363Z,73.10
2022-10-06T16:05:17.715Z,73.00
2022-10-06T16:07:48.087Z,73.20
2022-10-06T16:10:17.453Z,73.50
2022-10-06T16:12:46.484Z,73.20
2022-10-06T16:15:15.661Z,73.10
2022-10-06T16:17:44.645Z,73.30
2022-10-06T16:20:15.272Z,73.20
2022-10-06T16:22:44.255Z,73.30
2022-10-06T16:25:15.142Z,73.10
2022-10-06T16:27:44.145Z,73.20
2022-10-06T16:30:13.589Z,73.10
2022-10-06T16:32:42.583Z,73.00
2022-10-06T16:35:16.049Z,73.10
2022-10-06T16:37:49.887Z,73.30
2022-10-06T16:40:22.572Z,73.20
2022-10-06T16:42:53.086Z,73.60
2022-10-06T16:45:22.105Z,74.10
2022-10-06T16:47:51.125Z,74.30
2022-10-06T16:50:20.132Z,74.30
2022-10-06T16:52:49.117Z,74.10
2022-10-06T16:55:19.539Z,74.00
2022-10-06T16:57:48.587Z,73.70
2022-10-06T17:00:17.961Z,73.70
2022-10-06T17:02:46.996Z,74.10
2022-10-06T17:05:16.243Z,73.80
2022-10-06T17:07:45.240Z,74.30
2022-10-06T17:10:20.501Z,74.10
2022-10-06T17:12:51.440Z,73.90
2022-10-06T17:15:20.472Z,74.20
2022-10-06T17:17:49.502Z,74.80
2022-10-06T17:20:18.594Z,74.10
2022-10-06T17:22:48.597Z,73.80
2022-10-06T17:25:17.638Z,73.60
2022-10-06T17:27:46.667Z,73.70
2022-10-06T17:30:17.266Z,74.50
2022-10-06T17:32:47.351Z,74.70
2022-10-06T17:35:19.105Z,74.40
2022-10-06T17:37:50.232Z,74.00
2022-10-06T17:40:19.525Z,74.30
2022-10-06T17:42:48.519Z,74.60
2022-10-06T17:45:21.303Z,74.60
2022-10-06T17:47:51.739Z,74.80
2022-10-06T17:50:20.774Z,74.80
2022-10-06T17:52:49.757Z,74.50
2022-10-06T17:55:18.904Z,74.70
2022-10-06T17:57:47.900Z,74.90
2022-10-06T18:00:18.777Z,75.00
2022-10-06T18:02:48.006Z,75.20
2022-10-06T18:05:18.055Z,75.50
2022-10-06T18:07:47.350Z,75.40
2022-10-06T18:10:33.980Z,75.10
2022-10-06T18:13:02.982Z,75.20
2022-10-06T18:15:37.134Z,75.40
2022-10-06T18:18:06.372Z,75.70
2022-10-06T18:20:40.317Z,75.60
2022-10-06T18:23:09.985Z,76.00
2022-10-06T18:25:40.203Z,76.20
2022-10-06T18:28:10.407Z,75.50
2022-10-06T18:30:40.872Z,76.00
2022-10-06T18:36:12.935Z,76.60
2022-10-06T18:38:46.947Z,76.20
2022-10-06T18:41:18.932Z,76.20
2022-10-06T18:43:47.924Z,76.00
2022-10-06T18:46:36.622Z,76.40
2022-10-06T18:49:10.533Z,76.30
2022-10-06T18:51:41.611Z,76.10
2022-10-06T18:54:13.422Z,75.60
2022-10-06T18:56:46.254Z,76.40
2022-10-06T18:59:16.386Z,76.20
2022-10-06T19:01:48.804Z,76.30
2022-10-06T19:04:19.911Z,76.60
2022-10-06T19:06:53.071Z,76.60
2022-10-06T19:09:24.382Z,76.50
2022-10-06T19:11:57.768Z,76.80
2022-10-06T19:14:29.849Z,76.80
2022-10-06T19:17:04.795Z,76.80
2022-10-06T19:19:35.019Z,76.30
2022-10-06T19:22:05.543Z,75.90
2022-10-06T19:24:38.138Z,75.60
2022-10-06T19:27:12.196Z,75.90
2022-10-06T19:29:45.739Z,75.80
2022-10-06T19:32:19.797Z,75.60
2022-10-06T19:34:49.048Z,76.30
2022-10-06T19:37:18.139Z,76.50
2022-10-06T19:39:50.228Z,76.60
2022-10-06T19:42:38.672Z,77.00
2022-10-06T19:45:11.849Z,77.00
2022-10-06T19:47:42.984Z,76.90
2022-10-06T19:50:12.981Z,76.40
2022-10-06T19:52:42.540Z,76.80
2022-10-06T19:55:11.588Z,76.80
2022-10-06T19:57:40.632Z,76.90
2022-10-06T20:00:11.556Z,76.80
2022-10-06T20:02:45.329Z,77.10
2022-10-06T20:05:36.593Z,77.20
2022-10-06T20:08:23.956Z,77.20
2022-10-06T20:11:14.098Z,77.20
2022-10-06T20:14:01.388Z,77.50
2022-10-06T20:16:50.696Z,77.40
2022-10-06T20:19:40.060Z,77.80
2022-10-06T20:22:27.943Z,78.00
2022-10-06T20:25:15.802Z,77.70
2022-10-06T20:28:08.192Z,77.80
2022-10-06T20:30:58.780Z,77.50
2022-10-06T20:33:49.582Z,77.50
2022-10-06T20:36:39.983Z,77.50
2022-10-06T20:39:45.075Z,77.60
2022-10-06T20:42:32.766Z,77.60
2022-10-06T20:45:21.025Z,77.60
2022-10-06T20:48:09.109Z,78.00
2022-10-06T20:50:58.028Z,78.00
2022-10-06T20:53:47.622Z,78.30
2022-10-06T20:56:37.319Z,78.80
2022-10-06T20:59:25.821Z,78.60
2022-10-06T21:02:13.604Z,78.30
2022-10-06T21:05:02.329Z,78.30
2022-10-06T21:07:50.855Z,77.60
2022-10-06T21:10:40.040Z,78.20
2022-10-06T21:13:29.200Z,78.30
2022-10-06T21:16:17.036Z,78.70
2022-10-06T21:19:08.098Z,78.70
2022-10-06T21:21:56.040Z,78.40
2022-10-06T21:24:43.687Z,78.40
2022-10-06T21:27:32.515Z,77.70
2022-10-06T21:30:20.195Z,77.60
2022-10-06T21:33:07.544Z,78.10
2022-10-06T21:36:02.267Z,77.90
2022-10-06T21:38:53.350Z,78.20
2022-10-06T21:41:41.817Z,78.30
2022-10-06T21:44:30.692Z,78.60
2022-10-06T21:47:18.738Z,78.50
2022-10-06T21:50:07.116Z,78.80
2022-10-06T21:52:57.617Z,78.50
2022-10-06T21:55:47.055Z,78.60
2022-10-06T21:58:47.480Z,78.60
2022-10-06T22:01:43.241Z,78.60
2022-10-06T22:04:34.887Z,78.80
2022-10-06T22:07:30.603Z,78.90
2022-10-06T22:11:16.366Z,78.50
2022-10-06T22:14:24.297Z,78.80
2022-10-06T22:17:51.983Z,78.40
2022-10-06T22:20:46.853Z,78.40
2022-10-06T22:23:35.022Z,78.40
2022-10-06T22:26:26.315Z,78.50
2022-10-06T22:29:17.886Z,78.50
2022-10-06T22:32:38.299Z,78.50
2022-10-06T22:35:27.105Z,78.60
2022-10-06T22:38:18.212Z,78.80
2022-10-06T22:41:08.936Z,78.50
2022-10-06T22:43:59.200Z,78.50
2022-10-06T22:46:52.023Z,78.90
2022-10-06T22:49:41.877Z,79.00
2022-10-06T22:52:44.093Z,79.00
2022-10-06T22:55:35.879Z,79.10
2022-10-06T22:58:24.265Z,79.00
2022-10-06T23:01:17.558Z,78.80
2022-10-06T23:04:09.841Z,79.10
2022-10-06T23:07:00.386Z,78.80
2022-10-06T23:09:54.310Z,79.70
2022-10-06T23:12:42.902Z,78.90
2022-10-06T23:15:31.470Z,78.60
2022-10-06T23:23:03.068Z,78.90
2022-10-06T23:25:51.894Z,78.80
2022-10-06T23:28:41.891Z,79.10
2022-10-06T23:31:31.979Z,79.00
2022-10-06T23:34:20.701Z,79.30
2022-10-06T23:37:14.422Z,78.80
2022-10-06T23:40:04.813Z,78.40
2022-10-06T23:42:53.427Z,78.50
2022-10-06T23:45:42.247Z,78.80
2022-10-06T23:48:30.764Z,78.90
2022-10-06T23:51:19.669Z,78.90
2022-10-06T23:54:08.695Z,79.00
2022-10-06T23:56:58.887Z,79.10
2022-10-06T23:59:49.771Z,79.20
